createdAt,value
2023-02-04T00:00:07.955Z,22.05
2023-02-04T00:02:53.650Z,14.73
2023-02-04T00:05:39.242Z,13.82
2023-02-04T00:08:24.861Z,19.55
2023-02-04T00:11:10.389Z,14.02
2023-02-04T00:13:55.839Z,16.88
2023-02-04T00:16:41.519Z,21.38
2023-02-04T00:19:27.097Z,16.27
2023-02-04T00:22:12.601Z,25.38
2023-02-04T00:24:57.877Z,36.10
2023-02-04T00:27:43.438Z,25.65
2023-02-04T00:30:29.758Z,21.42
2023-02-04T00:33:15.379Z,21.98
2023-02-04T00:36:01.635Z,17.98
2023-02-04T00:38:47.127Z,29.67
2023-02-04T00:41:32.818Z,18.15
2023-02-04T00:44:18.272Z,20.23
2023-02-04T00:47:04.169Z,26.60
2023-02-04T00:49:49.655Z,19.77
2023-02-04T00:52:35.101Z,20.73
2023-02-04T00:55:21.130Z,24.10
2023-02-04T00:58:06.695Z,19.33
2023-02-04T01:00:52.238Z,21.50
2023-02-04T01:03:37.787Z,23.80
2023-02-04T01:06:23.304Z,16.25
2023-02-04T01:09:09.120Z,19.75
2023-02-04T01:11:54.600Z,17.80
2023-02-04T01:14:39.892Z,17.52
2023-02-04T01:17:25.820Z,21.40
2023-02-04T01:20:12.342Z,19.00
2023-02-04T01:22:57.568Z,17.05
2023-02-04T01:25:43.134Z,16.23
2023-02-04T01:28:28.657Z,14.98
2023-02-04T01:31:15.102Z,15.45
2023-02-04T01:34:01.306Z,25.10
2023-02-04T01:36:46.651Z,18.33
2023-02-04T01:39:33.992Z,12.10
2023-02-04T01:42:19.481Z,19.73
2023-02-04T01:45:06.411Z,17.00
2023-02-04T01:47:52.933Z,25.77
2023-02-04T01:50:38.676Z,18.02
2023-02-04T01:53:25.873Z,14.82
2023-02-04T01:56:26.343Z,13.93
2023-02-04T01:59:16.925Z,19.60
2023-02-04T02:02:02.584Z,16.70
2023-02-04T02:04:47.764Z,12.65
2023-02-04T02:07:33.517Z,12.85
2023-02-04T02:10:19.165Z,16.48
2023-02-04T02:13:07.096Z,12.40
2023-02-04T02:15:56.408Z,15.50
2023-02-04T02:18:41.949Z,21.38
2023-02-04T02:21:47.904Z,24.05
2023-02-04T02:24:35.308Z,20.30
2023-02-04T02:27:22.077Z,25.02
2023-02-04T02:30:09.551Z,20.33
2023-02-04T02:32:55.477Z,18.35
2023-02-04T02:35:43.482Z,14.75
2023-02-04T02:38:28.691Z,17.13
2023-02-04T02:41:14.157Z,20.17
2023-02-04T02:43:59.817Z,23.10
2023-02-04T02:46:46.378Z,17.92
2023-02-04T02:49:34.808Z,26.83
2023-02-04T02:52:20.450Z,22.65
2023-02-04T02:55:12.642Z,23.25
2023-02-04T02:57:58.399Z,19.58
2023-02-04T03:00:45.201Z,21.50
2023-02-04T03:03:34.395Z,21.05
2023-02-04T03:06:26.751Z,17.08
2023-02-04T03:09:12.210Z,13.25
2023-02-04T03:11:57.885Z,19.58
2023-02-04T03:14:43.602Z,13.73
2023-02-04T03:17:29.949Z,15.82
2023-02-04T03:20:16.001Z,16.33
2023-02-04T03:23:01.343Z,7.88
2023-02-04T03:25:47.122Z,13.02
2023-02-04T03:28:33.157Z,9.35
2023-02-04T03:31:18.961Z,14.13
2023-02-04T03:34:04.774Z,15.77
2023-02-04T03:36:50.359Z,12.23
2023-02-04T03:39:36.491Z,8.82
2023-02-04T03:42:21.940Z,11.15
2023-02-04T03:45:08.165Z,8.63
2023-02-04T03:47:53.450Z,10.70
2023-02-04T03:50:39.343Z,9.60
2023-02-04T03:53:24.950Z,12.02
2023-02-04T03:56:10.475Z,11.95
2023-02-04T03:58:56.152Z,10.07
2023-02-04T04:01:41.815Z,9.20
2023-02-04T04:04:27.139Z,11.25
2023-02-04T04:07:12.641Z,12.25
2023-02-04T04:09:58.271Z,9.60
2023-02-04T04:12:43.798Z,11.63
2023-02-04T04:15:30.685Z,10.88
2023-02-04T04:18:16.206Z,7.72
2023-02-04T04:21:02.388Z,15.32
2023-02-04T04:23:47.907Z,11.07
2023-02-04T04:26:33.489Z,10.13
2023-02-04T04:29:19.160Z,11.63
2023-02-04T04:32:05.250Z,15.90
2023-02-04T04:34:50.506Z,19.20
2023-02-04T04:37:35.993Z,17.55
2023-02-04T04:40:21.893Z,14.02
2023-02-04T04:43:07.588Z,13.38
2023-02-04T04:45:53.012Z,15.05
2023-02-04T04:48:38.895Z,15.23
2023-02-04T04:51:24.568Z,16.00
2023-02-04T04:54:10.430Z,11.48
2023-02-04T04:56:55.819Z,9.43
2023-02-04T04:59:41.360Z,14.00
2023-02-04T05:02:26.961Z,9.70
2023-02-04T05:05:13.334Z,19.25
2023-02-04T05:07:59.147Z,18.42
2023-02-04T05:10:44.785Z,18.60
2023-02-04T05:13:30.174Z,17.25
2023-02-04T05:16:17.498Z,14.63
2023-02-04T05:19:02.681Z,24.42
2023-02-04T05:21:48.126Z,21.58
2023-02-04T05:24:33.510Z,18.27
2023-02-04T05:27:19.065Z,19.88
2023-02-04T05:30:04.821Z,21.25
2023-02-04T05:32:50.050Z,14.02
2023-02-04T05:35:35.413Z,16.88
2023-02-04T05:38:21.136Z,10.93
2023-02-04T05:41:06.336Z,9.30
2023-02-04T05:43:51.885Z,9.98
2023-02-04T05:46:37.764Z,9.18
2023-02-04T05:49:24.022Z,10.07
2023-02-04T05:52:09.782Z,10.93
2023-02-04T05:54:55.217Z,7.30
2023-02-04T05:57:40.850Z,6.20
2023-02-04T06:00:26.239Z,8.43
2023-02-04T06:03:11.831Z,7.25
2023-02-04T06:05:57.748Z,7.57
2023-02-04T06:08:43.387Z,8.88
2023-02-04T06:11:29.077Z,8.98
2023-02-04T06:14:14.474Z,8.93
2023-02-04T06:17:00.349Z,6.32
2023-02-04T06:19:45.896Z,7.18
2023-02-04T06:22:31.682Z,6.45
2023-02-04T06:25:17.685Z,6.65
2023-02-04T06:28:03.769Z,7.53
2023-02-04T06:30:49.547Z,6.43
2023-02-04T06:33:36.713Z,6.15
2023-02-04T06:36:21.968Z,5.75
2023-02-04T06:39:07.672Z,6.30
2023-02-04T06:41:53.049Z,7.53
2023-02-04T06:44:38.898Z,6.13
2023-02-04T06:47:24.326Z,7.03
2023-02-04T06:50:10.386Z,6.53
2023-02-04T06:52:55.861Z,6.70
2023-02-04T06:55:41.313Z,5.78
2023-02-04T06:58:26.502Z,5.40
2023-02-04T07:01:12.401Z,5.45
2023-02-04T07:03:57.676Z,8.10
2023-02-04T07:06:43.405Z,6.25
2023-02-04T07:09:28.841Z,4.63
2023-02-04T07:12:16.183Z,6.78
2023-02-04T07:15:02.045Z,6.82
2023-02-04T07:17:47.625Z,7.63
2023-02-04T07:20:33.712Z,6.78
2023-02-04T07:23:19.281Z,7.43
2023-02-04T07:26:04.867Z,5.45
2023-02-04T07:28:50.478Z,8.20
2023-02-04T07:31:36.155Z,6.40
2023-02-04T07:34:22.026Z,7.40
2023-02-04T07:37:07.387Z,5.07
2023-02-04T07:39:52.781Z,7.20
2023-02-04T07:42:38.488Z,6.35
2023-02-04T07:45:29.583Z,8.50
2023-02-04T07:48:15.294Z,13.32
2023-02-04T07:51:00.728Z,9.07
2023-02-04T07:53:46.290Z,8.98
2023-02-04T07:56:31.605Z,10.30
2023-02-04T07:59:17.019Z,11.70
2023-02-04T08:02:02.327Z,7.68
2023-02-04T08:04:47.834Z,10.32
2023-02-04T08:07:33.414Z,11.00
2023-02-04T08:10:20.121Z,9.75
2023-02-04T08:13:05.846Z,11.23
2023-02-04T08:15:51.468Z,11.73
2023-02-04T08:18:36.967Z,10.23
2023-02-04T08:21:22.400Z,8.88
2023-02-04T08:24:07.747Z,7.75
2023-02-04T08:26:53.354Z,7.75
2023-02-04T08:29:38.792Z,7.25
2023-02-04T08:32:24.595Z,7.60
2023-02-04T08:35:09.962Z,9.55
2023-02-04T08:37:55.457Z,8.50
2023-02-04T08:40:41.014Z,9.23
2023-02-04T08:43:27.094Z,7.43
2023-02-04T08:46:12.553Z,8.48
2023-02-04T08:48:58.273Z,6.80
2023-02-04T08:51:43.845Z,8.35
2023-02-04T08:54:29.745Z,7.93
2023-02-04T08:57:15.333Z,8.73
2023-02-04T09:00:01.088Z,7.32
2023-02-04T09:02:46.169Z,8.00
2023-02-04T09:05:31.612Z,7.68
2023-02-04T09:08:16.989Z,5.95
2023-02-04T09:11:02.669Z,5.45
2023-02-04T09:13:47.968Z,8.27
2023-02-04T09:16:33.929Z,8.75
2023-02-04T09:19:25.103Z,9.40
2023-02-04T09:22:10.660Z,16.52
2023-02-04T09:24:56.523Z,11.38
2023-02-04T09:27:41.822Z,15.25
2023-02-04T09:30:27.630Z,12.90
2023-02-04T09:33:15.398Z,11.25
2023-02-04T09:36:01.047Z,11.00
2023-02-04T09:38:46.391Z,10.45
2023-02-04T09:41:36.416Z,8.18
2023-02-04T09:44:24.890Z,9.13
2023-02-04T09:47:11.366Z,6.90
2023-02-04T09:49:57.070Z,9.27
2023-02-04T09:52:43.250Z,7.57
2023-02-04T09:55:48.522Z,7.18
2023-02-04T09:58:35.366Z,7.97
2023-02-04T10:01:21.486Z,7.60
2023-02-04T10:04:14.356Z,8.35
2023-02-04T10:06:59.964Z,8.10
2023-02-04T10:09:47.238Z,6.68
2023-02-04T10:12:32.871Z,7.47
2023-02-04T10:15:20.411Z,7.90
2023-02-04T10:18:08.511Z,7.47
2023-02-04T10:21:06.698Z,8.05
2023-02-04T10:23:56.301Z,7.85
2023-02-04T10:26:41.669Z,8.27
2023-02-04T10:29:27.135Z,8.95
2023-02-04T10:32:28.054Z,8.73
2023-02-04T10:35:15.908Z,8.23
2023-02-04T10:38:06.711Z,8.23
2023-02-04T10:41:06.147Z,7.47
2023-02-04T10:44:05.932Z,10.07
2023-02-04T10:46:58.406Z,7.78
2023-02-04T10:50:06.138Z,7.72
2023-02-04T10:53:18.069Z,8.23
2023-02-04T10:56:04.285Z,8.07
2023-02-04T10:58:49.625Z,5.75
2023-02-04T11:01:35.121Z,12.95
2023-02-04T11:04:20.630Z,9.32
2023-02-04T11:07:12.748Z,9.05
2023-02-04T11:09:58.138Z,8.43
2023-02-04T11:12:54.954Z,8.13
2023-02-04T11:15:50.923Z,9.10
2023-02-04T11:18:51.672Z,9.38
2023-02-04T11:21:36.981Z,9.15
2023-02-04T11:24:25.584Z,8.32
2023-02-04T11:27:38.738Z,8.88
2023-02-04T11:33:25.174Z,8.30
2023-02-04T11:36:13.154Z,7.82
2023-02-04T11:39:08.091Z,7.57
2023-02-04T11:41:53.285Z,7.18
2023-02-04T11:44:38.724Z,10.35
2023-02-04T11:47:26.038Z,8.77
2023-02-04T11:50:25.149Z,8.40
2023-02-04T11:53:11.757Z,9.75
2023-02-04T11:55:57.208Z,9.07
2023-02-04T11:58:42.440Z,8.13
2023-02-04T12:01:32.898Z,7.75
2023-02-04T12:04:24.663Z,8.65
2023-02-04T12:07:12.931Z,8.95
2023-02-04T12:10:10.182Z,9.15
2023-02-04T12:12:59.660Z,8.77
2023-02-04T12:16:04.058Z,7.90
2023-02-04T12:18:50.041Z,8.25
2023-02-04T12:21:35.266Z,8.05
2023-02-04T12:24:20.902Z,8.10
2023-02-04T12:27:06.302Z,8.18
2023-02-04T12:29:51.766Z,7.13
2023-02-04T12:32:37.317Z,8.10
2023-02-04T12:35:22.634Z,9.23
2023-02-04T12:38:09.073Z,9.07
2023-02-04T12:40:54.567Z,9.80
2023-02-04T12:43:39.986Z,10.45
2023-02-04T12:46:25.557Z,12.23
2023-02-04T12:49:10.936Z,10.15
2023-02-04T12:51:59.250Z,12.85
2023-02-04T12:54:44.402Z,8.95
2023-02-04T12:57:29.773Z,7.80
2023-02-04T13:00:17.882Z,7.97
2023-02-04T13:03:03.316Z,7.70
2023-02-04T13:05:48.625Z,5.78
2023-02-04T13:08:34.126Z,9.13
2023-02-04T13:11:19.804Z,9.90
2023-02-04T13:14:05.066Z,8.65
2023-02-04T13:16:50.589Z,7.80
2023-02-04T13:19:36.366Z,8.68
2023-02-04T13:22:22.070Z,8.73
2023-02-04T13:25:07.681Z,5.47
2023-02-04T13:27:53.147Z,6.07
2023-02-04T13:30:38.675Z,7.20
2023-02-04T13:33:24.161Z,6.20
2023-02-04T13:36:09.900Z,6.40
2023-02-04T13:38:55.371Z,4.80
2023-02-04T13:41:41.232Z,5.97
2023-02-04T13:44:26.689Z,4.80
2023-02-04T13:47:12.225Z,4.97
2023-02-04T13:49:57.665Z,6.70
2023-02-04T13:52:42.949Z,4.57
2023-02-04T13:55:28.580Z,5.95
2023-02-04T13:58:14.276Z,5.72
2023-02-04T14:00:59.560Z,5.20
2023-02-04T14:03:46.601Z,5.10
2023-02-04T14:06:38.066Z,6.03
2023-02-04T14:09:23.935Z,8.00
2023-02-04T14:12:09.208Z,7.32
2023-02-04T14:14:54.870Z,4.80
2023-02-04T14:17:40.064Z,4.85
2023-02-04T14:20:25.843Z,5.40
2023-02-04T14:23:14.349Z,5.32
2023-02-04T14:25:59.575Z,5.05
2023-02-04T14:28:45.229Z,5.57
2023-02-04T14:31:30.644Z,5.28
2023-02-04T14:34:16.323Z,7.32
2023-02-04T14:37:01.819Z,5.47
2023-02-04T14:39:47.481Z,4.63
2023-02-04T14:42:32.970Z,5.55
2023-02-04T14:45:18.577Z,5.25
2023-02-04T14:48:04.576Z,6.47
2023-02-04T14:50:49.963Z,4.70
2023-02-04T14:53:35.687Z,6.35
2023-02-04T14:56:21.245Z,5.35
2023-02-04T14:59:06.997Z,5.50
2023-02-04T15:01:52.316Z,4.68
2023-02-04T15:04:38.559Z,3.60
2023-02-04T15:07:23.853Z,4.75
2023-02-04T15:10:10.476Z,3.70
2023-02-04T15:12:55.907Z,4.55
2023-02-04T15:15:41.635Z,3.92
2023-02-04T15:18:27.164Z,4.00
2023-02-04T15:21:13.143Z,3.83
2023-02-04T15:23:58.618Z,4.10
2023-02-04T15:26:44.470Z,3.40
2023-02-04T15:29:30.720Z,2.72
2023-02-04T15:32:16.451Z,2.90
2023-02-04T15:35:02.367Z,3.85
2023-02-04T15:37:48.564Z,3.55
2023-02-04T15:40:33.924Z,4.43
2023-02-04T15:43:19.523Z,3.03
2023-02-04T15:46:05.267Z,3.92
2023-02-04T15:48:51.032Z,3.20
2023-02-04T15:51:36.574Z,2.65
2023-02-04T15:54:25.792Z,2.80
2023-02-04T15:57:11.446Z,2.72
2023-02-04T15:59:58.237Z,3.92
2023-02-04T16:02:43.660Z,2.88
2023-02-04T16:05:29.557Z,2.95
2023-02-04T16:08:15.580Z,2.25
2023-02-04T16:11:01.378Z,2.53
2023-02-04T16:13:47.600Z,2.38
2023-02-04T16:16:33.202Z,3.55
2023-02-04T16:19:18.391Z,3.97
2023-02-04T16:22:05.983Z,3.72
2023-02-04T16:24:52.806Z,2.45
2023-02-04T16:27:38.577Z,3.33
2023-02-04T16:30:24.340Z,3.88
2023-02-04T16:33:10.531Z,3.08
2023-02-04T16:36:01.947Z,3.45
2023-02-04T16:38:47.429Z,3.67
2023-02-04T16:41:32.864Z,3.20
2023-02-04T16:44:18.334Z,3.85
2023-02-04T16:47:05.069Z,2.20
2023-02-04T16:49:51.305Z,3.50
2023-02-04T16:52:36.628Z,3.85
2023-02-04T16:55:22.177Z,3.47
2023-02-04T16:58:07.557Z,3.00
2023-02-04T17:00:52.887Z,4.25
2023-02-04T17:03:38.228Z,3.00
2023-02-04T17:06:27.366Z,3.30
2023-02-04T17:09:12.801Z,3.13
2023-02-04T17:11:58.323Z,3.22
2023-02-04T17:14:43.749Z,3.08
2023-02-04T17:17:29.679Z,3.92
2023-02-04T17:20:14.918Z,3.72
2023-02-04T17:23:00.517Z,4.78
2023-02-04T17:25:46.183Z,6.07
2023-02-04T17:28:31.626Z,3.38
2023-02-04T17:31:17.024Z,3.80
2023-02-04T17:34:03.299Z,2.88
2023-02-04T17:36:49.092Z,3.55
2023-02-04T17:39:34.661Z,4.82
2023-02-04T17:42:20.547Z,3.72
2023-02-04T17:45:06.939Z,3.60
2023-02-04T17:47:52.393Z,4.13
2023-02-04T17:50:40.036Z,3.40
2023-02-04T17:53:25.949Z,3.47
2023-02-04T17:56:12.772Z,3.05
2023-02-04T17:58:58.293Z,4.05
2023-02-04T18:01:44.772Z,2.92
2023-02-04T18:04:31.023Z,3.30
2023-02-04T18:07:16.124Z,4.10
2023-02-04T18:10:17.147Z,4.70
2023-02-04T18:13:23.922Z,2.85
2023-02-04T18:16:30.603Z,4.60
2023-02-04T18:19:18.384Z,3.58
2023-02-04T18:22:14.649Z,2.70
2023-02-04T18:25:00.558Z,3.80
2023-02-04T18:27:46.124Z,4.75
2023-02-04T18:30:32.491Z,4.63
2023-02-04T18:33:27.696Z,3.22
2023-02-04T18:36:19.037Z,3.80
2023-02-04T18:39:20.920Z,3.67
2023-02-04T18:42:14.442Z,4.50
2023-02-04T18:45:00.568Z,3.50
2023-02-04T18:47:46.302Z,5.05
2023-02-04T18:50:33.735Z,3.35
2023-02-04T18:53:28.006Z,3.42
2023-02-04T18:56:15.954Z,2.92
2023-02-04T18:59:01.618Z,4.93
2023-02-04T19:01:48.330Z,4.63
2023-02-04T19:04:33.728Z,4.32
2023-02-04T19:07:19.116Z,4.10
2023-02-04T19:10:29.193Z,3.85
2023-02-04T19:13:36.325Z,4.63
2023-02-04T19:16:27.599Z,3.92
2023-02-04T19:19:54.889Z,4.07
2023-02-04T19:23:14.049Z,4.82
2023-02-04T19:25:59.317Z,4.22
2023-02-04T19:28:44.974Z,4.03
2023-02-04T19:31:36.913Z,5.03
2023-02-04T19:34:28.833Z,4.93
2023-02-04T19:37:36.972Z,3.42
2023-02-04T19:40:28.614Z,5.30
2023-02-04T19:43:30.664Z,5.57
2023-02-04T19:46:24.062Z,4.45
2023-02-04T19:49:22.830Z,4.80
2023-02-04T19:52:25.103Z,5.40
2023-02-04T19:55:17.315Z,5.55
2023-02-04T19:58:23.676Z,6.05
2023-02-04T20:01:19.437Z,6.20
2023-02-04T20:04:12.771Z,7.47
2023-02-04T20:06:58.298Z,5.93
2023-02-04T20:09:43.702Z,5.22
2023-02-04T20:12:32.058Z,5.63
2023-02-04T20:15:19.702Z,5.15
2023-02-04T20:18:31.805Z,6.03
2023-02-04T20:21:17.422Z,5.63
2023-02-04T20:24:17.731Z,6.00
2023-02-04T20:27:19.119Z,5.70
2023-02-04T20:30:11.892Z,5.57
2023-02-04T20:32:59.647Z,6.13
2023-02-04T20:35:45.263Z,6.97
2023-02-04T20:38:31.243Z,6.57
2023-02-04T20:41:19.953Z,8.05
2023-02-04T20:44:23.870Z,6.93
2023-02-04T20:47:22.621Z,6.20
2023-02-04T20:50:37.968Z,6.55
2023-02-04T20:53:35.810Z,6.22
2023-02-04T20:56:23.589Z,7.05
2023-02-04T20:59:11.972Z,8.05
2023-02-04T21:01:57.426Z,6.93
2023-02-04T21:04:46.908Z,7.05
2023-02-04T21:07:32.730Z,9.05
2023-02-04T21:10:18.065Z,8.27
2023-02-04T21:13:03.605Z,6.70
2023-02-04T21:15:49.860Z,6.03
2023-02-04T21:18:36.042Z,6.47
2023-02-04T21:21:24.272Z,8.82
2023-02-04T21:24:09.673Z,9.20
2023-02-04T21:26:54.938Z,6.88
2023-02-04T21:29:40.544Z,8.23
2023-02-04T21:32:27.483Z,8.90
2023-02-04T21:35:13.072Z,10.00
2023-02-04T21:38:04.178Z,10.02
2023-02-04T21:40:49.661Z,9.80
2023-02-04T21:43:35.208Z,11.80
2023-02-04T21:46:21.531Z,9.48
2023-02-04T21:49:07.151Z,9.68
2023-02-04T21:51:52.538Z,10.07
2023-02-04T21:54:38.100Z,10.98
2023-02-04T21:57:23.710Z,11.60
2023-02-04T22:00:13.657Z,9.10
2023-02-04T22:02:59.449Z,11.68
2023-02-04T22:05:45.515Z,14.32
2023-02-04T22:08:30.762Z,15.85
2023-02-04T22:11:16.260Z,10.52
2023-02-04T22:14:19.999Z,10.02
2023-02-04T22:17:05.254Z,11.98
2023-02-04T22:19:50.781Z,13.27
2023-02-04T22:22:36.443Z,14.20
2023-02-04T22:25:22.276Z,19.42
2023-02-04T22:28:07.672Z,17.30
2023-02-04T22:30:54.285Z,17.98
2023-02-04T22:33:39.998Z,15.43
2023-02-04T22:36:25.485Z,21.10
2023-02-04T22:39:11.166Z,18.17
2023-02-04T22:41:56.396Z,20.60
2023-02-04T22:44:41.697Z,18.42
2023-02-04T22:47:27.284Z,19.40
2023-02-04T22:50:12.818Z,21.13
2023-02-04T22:52:58.542Z,18.83
2023-02-04T22:55:44.095Z,17.80
2023-02-04T22:58:29.374Z,16.13
2023-02-04T23:01:15.469Z,15.73
2023-02-04T23:04:01.109Z,14.93
2023-02-04T23:06:46.645Z,14.73
2023-02-04T23:09:35.503Z,13.77
2023-02-04T23:12:20.706Z,12.75
2023-02-04T23:15:06.762Z,14.93
2023-02-04T23:17:52.820Z,14.77
2023-02-04T23:20:40.181Z,13.32
2023-02-04T23:23:27.583Z,13.95
2023-02-04T23:26:13.276Z,13.88
2023-02-04T23:29:00.810Z,18.08
2023-02-04T23:31:45.974Z,17.05
2023-02-04T23:34:31.689Z,15.35
2023-02-04T23:37:16.935Z,14.80
2023-02-04T23:40:03.395Z,14.50
2023-02-04T23:42:48.958Z,14.55
2023-02-04T23:45:34.719Z,15.55
2023-02-04T23:48:20.370Z,13.43
2023-02-04T23:51:06.406Z,13.48
2023-02-04T23:53:51.797Z,14.30
2023-02-04T23:56:37.333Z,15.15
2023-02-04T23:59:22.775Z,14.50
